createdAt,value
2022-07-31T00:01:39.116Z,4.90
2022-07-31T00:04:09.118Z,4.90
2022-07-31T00:06:40.246Z,4.90
2022-07-31T00:09:46.938Z,5.20
2022-07-31T00:11:41.916Z,5.20
2022-07-31T00:16:39.011Z,5.20
2022-07-31T00:19:08.967Z,5.00
2022-07-31T00:21:38.963Z,5.00
2022-07-31T00:24:08.947Z,5.00
2022-07-31T00:26:39.849Z,5.00
2022-07-31T00:29:09.898Z,5.40
2022-07-31T00:31:39.050Z,5.40
2022-07-31T00:36:39.186Z,5.40
2022-07-31T00:39:09.190Z,5.50
2022-07-31T00:41:40.039Z,5.50
2022-07-31T00:44:12.250Z,5.50
2022-07-31T00:46:40.577Z,5.50
2022-07-31T00:49:09.034Z,5.60
2022-07-31T00:51:39.520Z,5.60
2022-07-31T00:54:09.931Z,5.60
2022-07-31T00:59:09.003Z,5.70
2022-07-31T01:01:38.942Z,5.70
2022-07-31T01:04:08.984Z,5.70
2022-07-31T01:06:42.539Z,5.70
2022-07-31T01:09:08.887Z,5.90
2022-07-31T01:19:17.580Z,5.00
2022-07-31T01:21:48.365Z,5.00
2022-07-31T01:26:47.490Z,5.00
2022-07-31T01:29:17.987Z,6.40
2022-07-31T01:31:44.025Z,6.40
2022-07-31T01:36:43.437Z,6.40
2022-07-31T01:39:09.646Z,6.20
2022-07-31T01:49:12.087Z,6.00
2022-07-31T01:51:40.714Z,6.00
2022-07-31T01:56:39.988Z,6.00
2022-07-31T01:59:19.983Z,5.70
2022-07-31T02:01:39.479Z,5.70
2022-07-31T02:04:10.467Z,5.70
2022-07-31T02:06:39.789Z,5.70
2022-07-31T02:09:10.484Z,5.60
2022-07-31T02:11:45.774Z,5.60
2022-07-31T02:16:39.285Z,5.60
2022-07-31T02:19:10.949Z,5.30
2022-07-31T02:21:39.447Z,5.30
2022-07-31T02:24:08.974Z,5.30
2022-07-31T02:29:19.586Z,5.30
2022-07-31T02:31:43.327Z,5.30
2022-07-31T02:34:09.770Z,5.30
2022-07-31T02:36:39.826Z,5.30
2022-07-31T02:39:10.334Z,5.20
2022-07-31T02:41:40.465Z,5.20
2022-07-31T02:44:11.664Z,5.20
2022-07-31T02:46:41.632Z,5.20
2022-07-31T02:49:10.833Z,5.50
2022-07-31T02:51:42.894Z,5.50
2022-07-31T02:54:09.165Z,5.50
2022-07-31T02:56:40.426Z,5.50
2022-07-31T02:59:08.989Z,5.50
2022-07-31T03:01:39.060Z,5.50
2022-07-31T03:06:39.343Z,5.50
2022-07-31T03:09:09.158Z,5.70
2022-07-31T03:11:39.177Z,5.70
2022-07-31T03:14:11.561Z,5.70
2022-07-31T03:19:10.048Z,6.00
2022-07-31T03:21:39.329Z,6.00
2022-07-31T03:26:39.187Z,6.00
2022-07-31T03:29:41.801Z,6.20
2022-07-31T03:31:39.094Z,6.20
2022-07-31T03:34:10.885Z,6.20
2022-07-31T03:36:38.973Z,6.20
2022-07-31T03:39:09.133Z,6.40
2022-07-31T03:41:39.568Z,6.40
2022-07-31T03:44:10.361Z,6.40
2022-07-31T03:49:09.457Z,6.80
2022-07-31T03:51:38.973Z,6.80
2022-07-31T03:54:09.300Z,6.80
2022-07-31T03:59:09.236Z,6.00
2022-07-31T04:01:57.219Z,6.00
2022-07-31T04:04:10.127Z,6.00
2022-07-31T04:06:39.588Z,6.00
2022-07-31T04:09:15.519Z,6.50
2022-07-31T04:11:39.166Z,6.50
2022-07-31T04:14:09.017Z,6.50
2022-07-31T04:19:09.735Z,6.40
2022-07-31T04:21:39.015Z,6.40
2022-07-31T04:24:10.668Z,6.40
2022-07-31T04:26:39.014Z,6.40
2022-07-31T04:29:09.026Z,6.00
2022-07-31T04:31:39.360Z,6.00
2022-07-31T04:34:09.020Z,6.00
2022-07-31T04:36:39.057Z,6.00
2022-07-31T04:39:09.136Z,6.90
2022-07-31T04:41:38.994Z,6.90
2022-07-31T04:44:09.595Z,6.90
2022-07-31T04:46:39.075Z,6.90
2022-07-31T04:49:12.108Z,6.30
2022-07-31T04:51:39.081Z,6.30
2022-07-31T04:54:09.719Z,6.30
2022-07-31T04:56:41.214Z,6.30
2022-07-31T04:59:11.132Z,6.80
2022-07-31T05:01:40.560Z,6.80
2022-07-31T05:04:09.971Z,6.80
2022-07-31T05:06:40.514Z,6.80
2022-07-31T05:09:18.457Z,6.80
2022-07-31T05:11:40.183Z,6.80
2022-07-31T05:14:11.247Z,6.80
2022-07-31T05:16:39.276Z,6.80
2022-07-31T05:19:14.846Z,6.70
2022-07-31T05:21:49.659Z,6.70
2022-07-31T05:24:09.404Z,6.70
2022-07-31T05:26:39.408Z,6.70
2022-07-31T05:29:09.052Z,6.60
2022-07-31T05:31:39.189Z,6.60
2022-07-31T05:34:09.162Z,6.60
2022-07-31T05:36:39.249Z,6.60
2022-07-31T05:39:09.164Z,7.50
2022-07-31T05:41:39.149Z,7.50
2022-07-31T05:44:09.307Z,7.50
2022-07-31T05:46:39.046Z,7.50
2022-07-31T05:49:09.174Z,7.60
2022-07-31T05:51:42.469Z,7.60
2022-07-31T05:54:09.067Z,7.60
2022-07-31T05:56:39.038Z,7.60
2022-07-31T05:59:09.157Z,7.90
2022-07-31T06:01:39.153Z,7.90
2022-07-31T06:04:09.493Z,7.90
2022-07-31T06:06:39.153Z,7.90
2022-07-31T06:09:09.086Z,8.10
2022-07-31T06:11:39.097Z,8.10
2022-07-31T06:14:09.072Z,8.10
2022-07-31T06:16:39.112Z,8.10
2022-07-31T06:21:39.042Z,8.10
2022-07-31T06:24:09.074Z,8.10
2022-07-31T06:26:39.185Z,8.10
2022-07-31T06:29:09.077Z,9.00
2022-07-31T06:31:39.058Z,9.00
2022-07-31T06:34:09.036Z,9.00
2022-07-31T06:36:39.275Z,9.00
2022-07-31T06:39:09.098Z,9.90
2022-07-31T06:41:46.449Z,9.90
2022-07-31T06:44:09.260Z,9.90
2022-07-31T06:46:39.147Z,9.90
2022-07-31T06:49:09.481Z,10.30
2022-07-31T06:51:39.323Z,10.30
2022-07-31T06:54:10.632Z,10.30
2022-07-31T06:56:39.126Z,10.30
2022-07-31T06:59:09.695Z,11.60
2022-07-31T07:01:39.241Z,11.60
2022-07-31T07:04:09.280Z,11.60
2022-07-31T07:06:39.174Z,11.60
2022-07-31T07:09:09.094Z,12.70
2022-07-31T07:11:39.923Z,12.70
2022-07-31T07:16:39.509Z,12.70
2022-07-31T07:19:09.268Z,12.50
2022-07-31T07:21:39.101Z,12.50
2022-07-31T07:24:09.227Z,12.50
2022-07-31T07:26:39.277Z,12.50
2022-07-31T07:29:09.666Z,13.90
2022-07-31T07:31:39.167Z,13.90
2022-07-31T07:34:09.110Z,13.90
2022-07-31T07:36:39.189Z,13.90
2022-07-31T07:39:09.163Z,12.60
2022-07-31T07:41:40.242Z,12.60
2022-07-31T07:44:09.126Z,12.60
2022-07-31T07:46:39.262Z,12.60
2022-07-31T07:49:09.287Z,11.20
2022-07-31T07:51:59.379Z,11.20
2022-07-31T07:54:09.221Z,11.20
2022-07-31T07:56:39.305Z,11.20
2022-07-31T07:59:14.720Z,12.00
2022-07-31T08:01:39.329Z,12.00
2022-07-31T08:04:09.112Z,12.00
2022-07-31T08:06:39.451Z,12.00
2022-07-31T08:09:09.134Z,12.30
2022-07-31T08:11:39.191Z,12.30
2022-07-31T08:19:09.325Z,12.70
2022-07-31T08:21:39.267Z,12.70
2022-07-31T08:24:10.207Z,12.70
2022-07-31T08:26:49.168Z,12.70
2022-07-31T08:29:09.110Z,12.50
2022-07-31T08:31:39.322Z,12.50
2022-07-31T08:34:09.229Z,12.50
2022-07-31T08:36:39.270Z,12.50
2022-07-31T08:41:39.795Z,14.10
2022-07-31T08:44:09.601Z,14.10
2022-07-31T08:46:39.872Z,14.10
2022-07-31T08:49:13.042Z,14.40
2022-07-31T08:51:51.339Z,14.40
2022-07-31T08:56:39.616Z,14.40
2022-07-31T08:59:09.402Z,14.00
2022-07-31T09:01:39.221Z,14.00
2022-07-31T09:04:09.469Z,14.00
2022-07-31T09:06:39.203Z,14.00
2022-07-31T09:09:09.542Z,15.40
2022-07-31T09:11:46.255Z,15.40
2022-07-31T09:14:09.850Z,15.40
2022-07-31T09:16:49.248Z,15.40
2022-07-31T09:19:51.123Z,15.80
2022-07-31T09:21:40.086Z,15.80
2022-07-31T09:24:11.852Z,15.80
2022-07-31T09:26:39.923Z,15.80
2022-07-31T09:29:11.544Z,16.20
2022-07-31T09:31:39.139Z,16.20
2022-07-31T09:34:09.271Z,16.20
2022-07-31T09:36:39.216Z,16.20
2022-07-31T09:39:13.339Z,15.50
2022-07-31T09:41:57.829Z,15.50
2022-07-31T09:46:40.377Z,15.50
2022-07-31T09:49:09.657Z,13.80
2022-07-31T09:51:40.010Z,13.80
2022-07-31T09:54:19.940Z,13.80
2022-07-31T09:56:39.295Z,13.80
2022-07-31T09:59:11.642Z,11.50
2022-07-31T10:04:10.127Z,11.50
2022-07-31T10:06:40.727Z,11.50
2022-07-31T10:09:10.214Z,9.40
2022-07-31T10:11:39.599Z,9.40
2022-07-31T10:14:14.539Z,9.40
2022-07-31T10:16:42.263Z,9.40
2022-07-31T10:19:11.892Z,10.60
2022-07-31T10:21:41.570Z,10.60
2022-07-31T10:24:10.560Z,10.60
2022-07-31T10:26:58.988Z,10.60
2022-07-31T10:29:09.573Z,14.30
2022-07-31T10:31:39.528Z,14.30
2022-07-31T10:34:09.366Z,14.30
2022-07-31T10:36:42.718Z,14.30
2022-07-31T10:39:16.084Z,19.40
2022-07-31T10:41:48.686Z,19.40
2022-07-31T10:44:12.908Z,19.40
2022-07-31T10:46:39.244Z,19.40
2022-07-31T10:49:09.368Z,16.80
2022-07-31T10:51:45.487Z,16.80
2022-07-31T10:54:10.626Z,16.80
2022-07-31T10:56:40.018Z,16.80
2022-07-31T10:59:10.517Z,14.90
2022-07-31T11:04:09.281Z,14.90
2022-07-31T11:06:41.055Z,14.90
2022-07-31T11:11:39.424Z,12.70
2022-07-31T11:14:09.185Z,12.70
2022-07-31T11:16:48.774Z,12.70
2022-07-31T11:21:40.867Z,15.40
2022-07-31T11:24:14.159Z,15.40
2022-07-31T11:26:42.400Z,15.40
2022-07-31T11:30:01.735Z,16.80
2022-07-31T11:31:39.262Z,16.80
2022-07-31T11:34:09.239Z,16.80
2022-07-31T11:36:42.895Z,16.80
2022-07-31T11:39:11.737Z,11.60
2022-07-31T11:41:44.296Z,11.60
2022-07-31T11:44:09.344Z,11.60
2022-07-31T11:46:39.360Z,11.60
2022-07-31T11:51:39.406Z,4.10
2022-07-31T11:54:09.400Z,4.10
2022-07-31T11:56:39.268Z,4.10
2022-07-31T11:59:09.514Z,4.30
2022-07-31T12:01:40.605Z,4.30
2022-07-31T12:04:09.368Z,4.30
2022-07-31T12:06:39.480Z,4.30
2022-07-31T12:10:01.025Z,4.10
2022-07-31T12:11:39.668Z,4.10
2022-07-31T12:14:09.251Z,4.10
2022-07-31T12:16:39.889Z,4.10
2022-07-31T12:19:09.830Z,5.20
2022-07-31T12:21:39.800Z,5.20
2022-07-31T12:24:11.578Z,5.20
2022-07-31T12:26:47.988Z,5.20
2022-07-31T12:29:10.874Z,4.80
2022-07-31T12:31:44.439Z,4.80
2022-07-31T12:34:09.231Z,4.80
2022-07-31T12:36:39.427Z,4.80
2022-07-31T12:39:10.849Z,5.70
2022-07-31T12:41:42.142Z,5.70
2022-07-31T12:44:10.160Z,5.70
2022-07-31T12:46:39.517Z,5.70
2022-07-31T12:51:46.092Z,7.00
2022-07-31T12:54:09.538Z,7.00
2022-07-31T12:59:10.076Z,7.80
2022-07-31T13:01:39.780Z,7.80
2022-07-31T13:04:18.840Z,7.80
2022-07-31T13:06:39.353Z,7.80
2022-07-31T13:09:09.382Z,6.40
2022-07-31T13:11:46.199Z,6.40
2022-07-31T13:14:09.351Z,6.40
2022-07-31T13:16:39.407Z,6.40
2022-07-31T13:19:09.438Z,8.20
2022-07-31T13:21:48.796Z,8.20
2022-07-31T13:24:09.675Z,8.20
2022-07-31T13:26:40.837Z,8.20
2022-07-31T13:29:09.668Z,8.30
2022-07-31T13:31:39.546Z,8.30
2022-07-31T13:34:09.295Z,8.30
2022-07-31T13:36:39.934Z,8.30
2022-07-31T13:39:10.147Z,8.20
2022-07-31T13:41:40.737Z,8.20
2022-07-31T13:44:09.391Z,8.20
2022-07-31T13:46:39.516Z,8.20
2022-07-31T13:49:09.528Z,7.40
2022-07-31T13:51:39.345Z,7.40
2022-07-31T13:54:09.510Z,7.40
2022-07-31T13:56:43.309Z,7.40
2022-07-31T13:59:11.750Z,8.40
2022-07-31T14:02:04.828Z,8.40
2022-07-31T14:04:12.783Z,8.40
2022-07-31T14:06:39.492Z,8.40
2022-07-31T14:09:09.397Z,6.20
2022-07-31T14:11:39.485Z,6.20
2022-07-31T14:16:40.852Z,6.20
2022-07-31T14:19:09.315Z,4.90
2022-07-31T14:21:39.345Z,4.90
2022-07-31T14:24:09.385Z,4.90
2022-07-31T14:26:39.303Z,4.90
2022-07-31T14:29:09.538Z,5.70
2022-07-31T14:31:39.338Z,5.70
2022-07-31T14:36:39.327Z,5.70
2022-07-31T14:39:09.287Z,5.60
2022-07-31T14:41:39.587Z,5.60
2022-07-31T14:44:09.420Z,5.60
2022-07-31T14:46:39.420Z,5.60
2022-07-31T14:49:09.425Z,5.10
2022-07-31T14:51:39.284Z,5.10
2022-07-31T14:54:09.403Z,5.10
2022-07-31T14:57:00.199Z,5.10
2022-07-31T14:59:09.309Z,5.70
2022-07-31T15:01:39.400Z,5.70
2022-07-31T15:06:53.358Z,5.70
2022-07-31T15:12:00.282Z,6.00
2022-07-31T15:14:09.439Z,6.00
2022-07-31T15:16:39.362Z,6.00
2022-07-31T15:19:11.013Z,7.30
2022-07-31T15:21:39.308Z,7.30
2022-07-31T15:24:09.333Z,7.30
2022-07-31T15:26:39.841Z,7.30
2022-07-31T15:29:09.328Z,6.90
2022-07-31T15:31:39.547Z,6.90
2022-07-31T15:34:09.521Z,6.90
2022-07-31T15:36:39.497Z,6.90
2022-07-31T15:39:09.296Z,5.00
2022-07-31T15:41:39.338Z,5.00
2022-07-31T15:44:09.479Z,5.00
2022-07-31T15:46:39.502Z,5.00
2022-07-31T15:49:09.567Z,4.40
2022-07-31T15:51:39.310Z,4.40
2022-07-31T15:54:09.397Z,4.40
2022-07-31T15:56:39.509Z,4.40
2022-07-31T15:59:09.342Z,4.20
2022-07-31T16:01:39.545Z,4.20
2022-07-31T16:04:14.152Z,4.20
2022-07-31T16:06:39.407Z,4.20
2022-07-31T16:09:09.478Z,4.30
2022-07-31T16:14:09.732Z,4.30
2022-07-31T16:16:43.028Z,4.30
2022-07-31T16:19:09.384Z,4.20
2022-07-31T16:21:39.693Z,4.20
2022-07-31T16:24:09.331Z,4.20
2022-07-31T16:26:39.641Z,4.20
2022-07-31T16:29:17.208Z,4.30
2022-07-31T16:31:39.843Z,4.30
2022-07-31T16:34:09.464Z,4.30
2022-07-31T16:36:40.224Z,4.30
2022-07-31T16:39:19.966Z,3.30
2022-07-31T16:41:39.348Z,3.30
2022-07-31T16:44:09.555Z,3.30
2022-07-31T16:46:39.587Z,3.30
2022-07-31T16:49:35.508Z,3.60
2022-07-31T16:51:39.444Z,3.60
2022-07-31T16:54:11.111Z,3.60
2022-07-31T16:56:39.492Z,3.60
2022-07-31T16:59:09.740Z,3.80
2022-07-31T17:01:57.668Z,3.80
2022-07-31T17:04:09.486Z,3.80
2022-07-31T17:06:39.490Z,3.80
2022-07-31T17:09:15.951Z,4.10
2022-07-31T17:11:39.599Z,4.10
2022-07-31T17:14:09.995Z,4.10
2022-07-31T17:16:43.411Z,4.10
2022-07-31T17:19:09.439Z,3.40
2022-07-31T17:21:43.917Z,3.40
2022-07-31T17:24:09.553Z,3.40
2022-07-31T17:26:39.496Z,3.40
2022-07-31T17:29:09.403Z,3.60
2022-07-31T17:31:39.684Z,3.60
2022-07-31T17:34:09.745Z,3.60
2022-07-31T17:36:39.528Z,3.60
2022-07-31T17:41:39.405Z,3.20
2022-07-31T17:44:09.644Z,3.20
2022-07-31T17:46:43.922Z,3.20
2022-07-31T17:49:10.609Z,3.40
2022-07-31T17:51:39.393Z,3.40
2022-07-31T17:54:09.552Z,3.40
2022-07-31T17:56:39.460Z,3.40
2022-07-31T17:59:09.446Z,3.70
2022-07-31T18:01:39.567Z,3.70
2022-07-31T18:04:09.755Z,3.70
2022-07-31T18:06:39.876Z,3.70
2022-07-31T18:09:09.363Z,4.50
2022-07-31T18:11:39.391Z,4.50
2022-07-31T18:14:09.458Z,4.50
2022-07-31T18:16:39.664Z,4.50
2022-07-31T18:19:09.572Z,5.40
2022-07-31T18:24:09.645Z,5.40
2022-07-31T18:26:39.429Z,5.40
2022-07-31T18:29:09.616Z,6.40
2022-07-31T18:31:39.565Z,6.40
2022-07-31T18:39:09.482Z,7.00
2022-07-31T18:41:44.418Z,7.00
2022-07-31T18:44:09.535Z,7.00
2022-07-31T18:46:39.615Z,7.00
2022-07-31T18:49:09.516Z,8.30
2022-07-31T18:51:39.571Z,8.30
2022-07-31T18:54:09.559Z,8.30
2022-07-31T18:56:39.572Z,8.30
2022-07-31T18:59:09.710Z,8.90
2022-07-31T19:04:09.580Z,8.90
2022-07-31T19:06:39.717Z,8.90
2022-07-31T19:09:09.556Z,6.90
2022-07-31T19:11:39.865Z,6.90
2022-07-31T19:14:09.494Z,6.90
2022-07-31T19:16:39.696Z,6.90
2022-07-31T19:19:10.292Z,4.60
2022-07-31T19:21:42.278Z,4.60
2022-07-31T19:29:09.550Z,2.10
2022-07-31T19:31:39.598Z,2.10
2022-07-31T19:34:09.385Z,2.10
2022-07-31T19:36:41.415Z,2.10
2022-07-31T19:39:09.464Z,1.10
2022-07-31T19:44:12.348Z,1.10
2022-07-31T19:46:41.944Z,1.10
2022-07-31T19:49:09.543Z,1.10
2022-07-31T19:51:39.451Z,1.10
2022-07-31T19:56:39.665Z,1.10
2022-07-31T19:59:09.681Z,2.10
2022-07-31T20:06:40.952Z,2.10
2022-07-31T20:09:09.668Z,3.50
2022-07-31T20:11:39.426Z,3.50
2022-07-31T20:14:09.610Z,3.50
2022-07-31T20:16:39.472Z,3.50
2022-07-31T20:19:09.484Z,4.70
2022-07-31T20:21:39.648Z,4.70
2022-07-31T20:24:10.699Z,4.70
2022-07-31T20:26:39.463Z,4.70
2022-07-31T20:29:09.469Z,5.60
2022-07-31T20:31:39.678Z,5.60
2022-07-31T20:34:09.796Z,5.60
2022-07-31T20:36:39.902Z,5.60
2022-07-31T20:39:09.588Z,7.50
2022-07-31T20:41:39.514Z,7.50
2022-07-31T20:44:09.834Z,7.50
2022-07-31T20:49:19.631Z,6.30
2022-07-31T20:51:39.525Z,6.30
2022-07-31T20:54:09.496Z,6.30
2022-07-31T20:59:09.667Z,7.20
2022-07-31T21:01:40.190Z,7.20
2022-07-31T21:04:09.610Z,7.20
2022-07-31T21:06:39.616Z,7.20
2022-07-31T21:09:09.477Z,6.60
2022-07-31T21:11:39.588Z,6.60
2022-07-31T21:14:09.760Z,6.60
2022-07-31T21:16:40.332Z,6.60
2022-07-31T21:19:09.542Z,8.00
2022-07-31T21:21:39.518Z,8.00
2022-07-31T21:24:09.672Z,8.00
2022-07-31T21:26:40.605Z,8.00
2022-07-31T21:29:09.776Z,8.60
2022-07-31T21:31:44.889Z,8.60
2022-07-31T21:34:10.043Z,8.60
2022-07-31T21:36:39.803Z,8.60
2022-07-31T21:39:09.783Z,7.90
2022-07-31T21:41:39.813Z,7.90
2022-07-31T21:44:10.161Z,7.90
2022-07-31T21:46:40.257Z,7.90
2022-07-31T21:49:11.470Z,8.30
2022-07-31T21:51:40.609Z,8.30
2022-07-31T21:54:13.092Z,8.30
2022-07-31T21:56:39.487Z,8.30
2022-07-31T21:59:09.563Z,6.10
2022-07-31T22:01:39.711Z,6.10
2022-07-31T22:04:09.825Z,6.10
2022-07-31T22:06:49.482Z,6.10
2022-07-31T22:09:09.583Z,3.40
2022-07-31T22:11:39.494Z,3.40
2022-07-31T22:14:09.690Z,3.40
2022-07-31T22:16:39.636Z,3.40
2022-07-31T22:19:10.296Z,2.10
2022-07-31T22:21:40.195Z,2.10
2022-07-31T22:24:10.116Z,2.10
2022-07-31T22:29:10.538Z,2.20
2022-07-31T22:31:39.702Z,2.20
2022-07-31T22:34:09.592Z,2.20
2022-07-31T22:36:41.416Z,2.20
2022-07-31T22:39:09.636Z,2.40
2022-07-31T22:41:39.803Z,2.40
2022-07-31T22:44:14.993Z,2.40
2022-07-31T22:46:40.656Z,2.40
2022-07-31T22:49:09.969Z,2.50
2022-07-31T22:51:41.664Z,2.50
2022-07-31T22:59:09.741Z,3.10
2022-07-31T23:01:39.861Z,3.10
2022-07-31T23:06:39.574Z,3.10
2022-07-31T23:09:09.525Z,3.70
2022-07-31T23:11:39.885Z,3.70
2022-07-31T23:19:09.719Z,4.40
2022-07-31T23:21:39.559Z,4.40
2022-07-31T23:24:10.329Z,4.40
2022-07-31T23:29:09.642Z,4.90
2022-07-31T23:31:39.611Z,4.90
2022-07-31T23:34:09.754Z,4.90
2022-07-31T23:36:39.730Z,4.90
2022-07-31T23:39:11.945Z,5.50
2022-07-31T23:41:49.551Z,5.50
2022-07-31T23:44:10.614Z,5.50
2022-07-31T23:46:40.188Z,5.50
2022-07-31T23:49:09.865Z,4.10
2022-07-31T23:51:39.547Z,4.10
2022-07-31T23:54:09.567Z,4.10
2022-07-31T23:59:09.678Z,4.20
